Time;durP1;ratioP1;P1;durP2;ratioP2;P2;SDS_P1;SDS_P2;PMS_P1;PMS_P2;Temp;Humidity;BMP_temperature;BMP_pressure;BME280_temperature;BME280_humidity;BME280_pressure;Samples;Min_cycle;Max_cycle;Signal;HPM_P1;HPM_P2
2022/06/26 00:01:15;;;;;;;15.77;14.38;;;16.40;99.90;;;;;;5068987;28;20045;-38
2022/06/26 00:03:42;;;;;;;16.77;14.95;;;16.40;99.90;;;;;;5069293;28;20080;-38
2022/06/26 00:06:07;;;;;;;17.10;15.32;;;16.40;99.90;;;;;;5068912;28;20131;-38
2022/06/26 00:08:33;;;;;;;17.17;15.15;;;16.40;99.90;;;;;;5069524;28;20431;-38
2022/06/26 00:10:59;;;;;;;17.50;15.70;;;16.30;99.90;;;;;;5066994;28;20114;-38
2022/06/26 00:13:24;;;;;;;17.38;15.57;;;16.30;99.90;;;;;;5068756;28;20082;-37
2022/06/26 00:15:50;;;;;;;18.10;16.20;;;16.30;99.90;;;;;;5069188;28;20049;-38
2022/06/26 00:18:16;;;;;;;23.73;16.20;;;16.40;99.90;;;;;;5068916;28;20479;-38
2022/06/26 00:20:42;;;;;;;18.02;16.17;;;16.20;99.90;;;;;;5069048;28;20044;-38
2022/06/26 00:23:08;;;;;;;17.83;16.08;;;16.10;99.90;;;;;;5069088;28;20040;-38
2022/06/26 00:25:34;;;;;;;19.63;17.45;;;16.10;99.90;;;;;;5069229;28;20099;-38
2022/06/26 00:28:00;;;;;;;18.73;16.92;;;16.00;99.90;;;;;;5068517;28;20068;-38
2022/06/26 00:30:25;;;;;;;20.13;18.05;;;16.10;99.90;;;;;;5071591;28;20090;-37
2022/06/26 00:32:51;;;;;;;21.20;16.75;;;16.10;99.90;;;;;;5072517;28;20040;-37
2022/06/26 00:35:17;;;;;;;21.90;17.38;;;16.00;99.90;;;;;;5072207;28;20437;-38
2022/06/26 00:37:42;;;;;;;20.60;18.55;;;16.50;99.90;;;;;;5072412;28;20036;-38
2022/06/26 00:40:09;;;;;;;20.83;18.42;;;16.20;99.90;;;;;;5071861;28;20036;-38
2022/06/26 00:42:35;;;;;;;21.75;18.33;;;15.90;99.90;;;;;;5072545;28;20036;-38
2022/06/26 00:45:02;;;;;;;20.52;18.52;;;16.00;99.90;;;;;;5072103;28;20040;-38
2022/06/26 00:47:30;;;;;;;22.00;19.63;;;15.80;99.90;;;;;;5072109;28;20056;-38
2022/06/26 00:49:56;;;;;;;20.63;18.52;;;16.00;99.90;;;;;;5071934;28;20486;-38
2022/06/26 00:52:23;;;;;;;23.08;20.38;;;15.80;99.90;;;;;;5071860;28;20033;-38
2022/06/26 00:54:50;;;;;;;25.60;22.10;;;15.80;99.90;;;;;;5072011;28;20037;-38
2022/06/26 00:57:16;;;;;;;23.80;21.30;;;15.80;99.90;;;;;;5071861;28;20052;-38
2022/06/26 00:59:43;;;;;;;22.65;20.35;;;15.90;99.90;;;;;;5071840;28;20094;-38
2022/06/26 01:02:09;;;;;;;23.50;21.05;;;15.90;99.90;;;;;;5071729;28;20063;-38
2022/06/26 01:04:34;;;;;;;21.45;19.48;;;15.80;99.90;;;;;;5071619;28;20059;-37
2022/06/26 01:07:00;;;;;;;24.70;19.95;;;15.90;99.90;;;;;;5071876;28;20057;-38
2022/06/26 01:09:26;;;;;;;20.73;18.63;;;15.90;99.90;;;;;;5071306;28;20060;-38
2022/06/26 01:11:53;;;;;;;20.50;18.38;;;15.90;99.90;;;;;;5071364;28;20390;-38
2022/06/26 01:14:20;;;;;;;20.42;18.38;;;16.00;99.90;;;;;;5071463;28;20048;-38
2022/06/26 01:16:46;;;;;;;20.50;17.95;;;15.90;99.90;;;;;;5071434;28;20049;-37
2022/06/26 01:19:16;;;;;;;21.88;18.27;;;15.80;99.90;;;;;;5071289;28;20394;-37
2022/06/26 01:21:42;;;;;;;21.95;18.75;;;15.80;99.90;;;;;;5071574;28;20409;-38
2022/06/26 01:24:08;;;;;;;20.42;18.48;;;15.80;99.90;;;;;;5070983;28;20534;-38
2022/06/26 01:26:36;;;;;;;22.30;19.52;;;16.00;99.90;;;;;;5071474;28;20123;-38
2022/06/26 01:29:06;;;;;;;22.30;20.02;;;15.60;99.90;;;;;;5071698;28;20424;-38
2022/06/26 01:31:36;;;;;;;25.85;23.17;;;15.90;99.90;;;;;;5071398;28;20037;-38
2022/06/26 01:34:07;;;;;;;26.65;23.77;;;15.60;99.90;;;;;;5071257;28;20044;-38
2022/06/26 01:36:33;;;;;;;26.85;23.90;;;16.00;99.90;;;;;;5071041;28;20044;-38
2022/06/26 01:38:59;;;;;;;25.30;22.55;;;15.60;99.90;;;;;;5071426;28;20040;-38
2022/06/26 01:41:25;;;;;;;25.48;22.75;;;15.60;99.90;;;;;;5070551;28;20055;-38
2022/06/26 01:43:50;;;;;;;18.08;16.05;;;15.80;99.90;;;;;;5070862;28;20051;-38
2022/06/26 01:46:16;;;;;;;21.42;18.02;;;15.70;99.90;;;;;;5070636;28;20048;-38
2022/06/26 01:48:46;;;;;;;23.05;19.75;;;15.70;99.90;;;;;;5071076;28;20056;-38
2022/06/26 01:51:11;;;;;;;22.83;20.50;;;15.80;99.90;;;;;;5070537;28;20260;-38
2022/06/26 01:53:38;;;;;;;26.38;23.42;;;15.70;99.90;;;;;;5070930;28;20039;-38
2022/06/26 01:56:04;;;;;;;25.73;23.00;;;15.90;99.90;;;;;;5070825;28;20082;-37
2022/06/26 01:58:30;;;;;;;24.85;21.15;;;16.20;99.90;;;;;;5070312;28;20498;-38
2022/06/26 02:00:56;;;;;;;30.00;24.17;;;16.00;99.90;;;;;;5070833;28;20043;-38
2022/06/26 02:03:22;;;;;;;30.15;22.27;;;16.00;99.90;;;;;;5070497;28;20045;-38
2022/06/26 02:05:49;;;;;;;23.33;20.70;;;16.10;99.90;;;;;;5070368;28;20141;-38
2022/06/26 02:08:14;;;;;;;22.23;19.92;;;16.20;99.90;;;;;;5070188;28;20557;-37
2022/06/26 02:13:37;;;;;;;25.08;19.88;;;16.30;99.90;;;;;;5070146;28;20047;-38
2022/06/26 02:16:04;;;;;;;22.95;20.30;;;16.30;99.90;;;;;;5070608;28;20055;-38
2022/06/26 02:18:29;;;;;;;25.30;21.80;;;16.40;99.90;;;;;;5070246;28;20056;-38
2022/06/26 02:20:55;;;;;;;24.05;20.65;;;16.50;99.90;;;;;;5070432;28;20044;-38
2022/06/26 02:23:21;;;;;;;22.90;20.50;;;16.50;99.90;;;;;;5069857;28;20048;-37
2022/06/26 02:25:47;;;;;;;21.60;19.33;;;17.00;99.90;;;;;;5070184;28;20052;-38
2022/06/26 02:28:13;;;;;;;24.55;19.45;;;16.60;99.90;;;;;;5070110;28;20094;-37
2022/06/26 02:30:39;;;;;;;22.20;19.90;;;16.70;99.90;;;;;;5070239;28;20119;-38
2022/06/26 02:33:05;;;;;;;20.40;18.48;;;17.10;99.90;;;;;;5070283;28;20123;-38
2022/06/26 02:35:31;;;;;;;22.20;18.13;;;16.70;99.90;;;;;;5069875;28;20441;-38
2022/06/26 02:37:57;;;;;;;23.10;19.48;;;16.80;99.90;;;;;;5069881;28;20041;-38
2022/06/26 02:40:26;;;;;;;24.33;19.83;;;16.80;99.90;;;;;;5069845;28;20036;-37
2022/06/26 02:42:52;;;;;;;24.90;21.52;;;16.80;99.90;;;;;;5070188;28;20081;-38
2022/06/26 02:45:18;;;;;;;22.73;19.88;;;16.80;99.90;;;;;;5069372;28;20124;-38
2022/06/26 02:47:44;;;;;;;24.33;21.73;;;16.80;99.90;;;;;;5068493;28;20402;-37
2022/06/26 02:50:10;;;;;;;27.50;22.33;;;16.90;99.90;;;;;;5069983;28;20394;-38
2022/06/26 02:52:37;;;;;;;28.50;23.52;;;16.90;99.90;;;;;;5069197;28;20501;-38
2022/06/26 02:55:03;;;;;;;25.55;21.27;;;16.80;99.90;;;;;;5070163;28;20114;-38
2022/06/26 02:57:29;;;;;;;26.85;22.55;;;16.80;99.90;;;;;;5069726;28;20041;-38
2022/06/26 02:59:55;;;;;;;35.42;24.45;;;16.80;99.90;;;;;;5070117;28;20119;-38
2022/06/26 03:02:20;;;;;;;25.98;20.75;;;16.80;99.90;;;;;;5068419;28;20087;-38
2022/06/26 03:04:47;;;;;;;27.17;21.63;;;16.80;99.90;;;;;;5069449;28;20082;-38
2022/06/26 03:07:13;;;;;;;27.50;21.85;;;16.70;99.90;;;;;;5069798;28;20040;-37
2022/06/26 03:09:38;;;;;;;26.65;20.50;;;16.80;99.90;;;;;;5068904;28;20037;-37
2022/06/26 03:12:05;;;;;;;30.85;21.80;;;16.70;99.90;;;;;;5069746;28;20045;-38
2022/06/26 03:14:31;;;;;;;27.00;21.40;;;16.70;99.90;;;;;;5069143;28;20033;-38
2022/06/26 03:16:56;;;;;;;28.45;22.27;;;16.70;99.90;;;;;;5069697;28;20044;-38
2022/06/26 03:19:23;;;;;;;30.98;20.73;;;16.70;99.90;;;;;;5069390;28;20097;-38
2022/06/26 03:21:49;;;;;;;21.90;18.52;;;16.70;99.90;;;;;;5069388;28;20059;-38
2022/06/26 03:24:15;;;;;;;20.63;17.73;;;16.70;99.90;;;;;;5069575;28;20049;-38
2022/06/26 03:26:40;;;;;;;18.67;16.67;;;17.10;99.90;;;;;;5069365;28;20361;-38
2022/06/26 03:29:08;;;;;;;20.45;16.02;;;16.80;99.90;;;;;;5069570;28;20531;-38
2022/06/26 03:31:34;;;;;;;16.27;13.50;;;16.70;99.90;;;;;;5069306;28;20029;-37
2022/06/26 03:34:00;;;;;;;14.20;12.02;;;16.70;99.90;;;;;;5069832;28;20036;-38
2022/06/26 03:36:27;;;;;;;17.13;12.85;;;16.70;99.90;;;;;;5069233;28;20055;-38
2022/06/26 03:38:54;;;;;;;18.20;11.95;;;16.70;99.90;;;;;;5069474;28;20040;-37
2022/06/26 03:41:20;;;;;;;14.25;11.27;;;16.70;99.90;;;;;;5069443;28;20032;-38
2022/06/26 03:43:45;;;;;;;14.57;9.88;;;16.70;99.90;;;;;;5069556;28;20528;-38
2022/06/26 03:46:11;;;;;;;13.35;10.20;;;16.70;99.90;;;;;;5069230;28;20041;-38
2022/06/26 03:48:37;;;;;;;10.85;9.05;;;16.70;99.90;;;;;;5068946;28;20045;-38
2022/06/26 03:51:04;;;;;;;9.68;8.60;;;17.00;99.90;;;;;;5069339;28;20111;-38
2022/06/26 03:53:30;;;;;;;14.65;8.63;;;16.70;99.90;;;;;;5069137;28;20029;-38
2022/06/26 03:55:56;;;;;;;9.23;8.27;;;17.00;99.90;;;;;;5068917;28;20599;-38
2022/06/26 03:58:22;;;;;;;11.73;8.48;;;16.70;99.90;;;;;;5069309;28;20127;-38
2022/06/26 04:00:49;;;;;;;9.00;8.10;;;16.60;99.90;;;;;;5069193;28;20087;-37
2022/06/26 04:03:15;;;;;;;9.38;6.57;;;16.70;99.90;;;;;;5069360;28;20491;-38
2022/06/26 04:05:41;;;;;;;7.90;6.70;;;16.70;99.90;;;;;;5071780;28;20075;-38
2022/06/26 04:08:07;;;;;;;6.57;5.97;;;16.70;99.90;;;;;;5073037;28;20549;-38
2022/06/26 04:10:34;;;;;;;7.82;5.68;;;16.70;99.90;;;;;;5072095;28;20045;-37
2022/06/26 04:13:01;;;;;;;7.40;5.68;;;16.70;99.90;;;;;;5072705;28;20672;-38
2022/06/26 04:15:28;;;;;;;7.28;5.75;;;16.70;99.90;;;;;;5072510;28;20044;-38
2022/06/26 04:17:53;;;;;;;9.10;5.10;;;16.70;99.90;;;;;;5072816;28;20048;-38
2022/06/26 04:20:20;;;;;;;8.57;5.05;;;17.00;99.90;;;;;;5072691;28;20386;-38
2022/06/26 04:23:04;;;;;;;5.10;4.55;;;16.70;99.90;;;;;;5072236;28;20049;-38
2022/06/26 04:25:31;;;;;;;7.72;5.07;;;16.90;99.90;;;;;;5072124;28;20033;-38
2022/06/26 04:27:57;;;;;;;7.20;4.68;;;16.70;99.90;;;;;;5072421;28;20505;-38
2022/06/26 04:30:23;;;;;;;7.93;4.60;;;16.90;99.90;;;;;;5072448;28;20040;-38
2022/06/26 04:32:49;;;;;;;7.80;4.35;;;16.60;99.90;;;;;;5072314;28;20048;-38
2022/06/26 04:35:15;;;;;;;4.95;4.47;;;16.50;99.90;;;;;;5072342;28;20563;-37
2022/06/26 04:37:41;;;;;;;5.85;4.75;;;16.50;99.90;;;;;;5072288;28;20066;-38
2022/06/26 04:40:10;;;;;;;6.57;4.32;;;16.50;99.90;;;;;;5072330;28;20433;-38
2022/06/26 04:42:36;;;;;;;5.13;4.15;;;16.70;99.90;;;;;;5072216;28;20517;-38
2022/06/26 04:45:02;;;;;;;8.60;4.03;;;16.80;99.90;;;;;;5072342;28;20049;-38
2022/06/26 04:47:28;;;;;;;5.30;4.13;;;16.80;99.90;;;;;;5072422;28;20391;-38
2022/06/26 04:49:54;;;;;;;5.28;3.92;;;17.20;99.90;;;;;;5072293;28;20083;-38
2022/06/26 04:52:20;;;;;;;4.85;4.22;;;17.20;99.90;;;;;;5072120;28;20068;-38
2022/06/26 04:54:46;;;;;;;4.95;4.50;;;16.80;99.90;;;;;;5072202;28;20039;-38
2022/06/26 04:57:12;;;;;;;6.43;4.57;;;16.90;99.90;;;;;;5072215;28;20386;-38
2022/06/26 04:59:38;;;;;;;6.28;4.55;;;16.90;99.90;;;;;;5071991;28;20387;-37
2022/06/26 05:02:06;;;;;;;9.55;5.13;;;17.00;99.90;;;;;;5071685;28;20045;-38
2022/06/26 05:04:31;;;;;;;6.43;4.18;;;17.00;99.90;;;;;;5071630;28;20040;-38
2022/06/26 05:06:57;;;;;;;6.85;4.30;;;17.10;99.90;;;;;;5071879;28;20383;-38
2022/06/26 05:09:24;;;;;;;6.97;4.40;;;17.20;99.90;;;;;;5071731;28;20075;-38
2022/06/26 05:11:50;;;;;;;7.32;4.00;;;17.30;99.90;;;;;;5070921;28;20643;-38
2022/06/26 05:14:16;;;;;;;7.57;4.65;;;17.40;99.90;;;;;;5071530;28;20071;-38
2022/06/26 05:16:42;;;;;;;4.72;3.70;;;17.50;99.90;;;;;;5071047;28;20079;-38
2022/06/26 05:19:07;;;;;;;5.47;4.60;;;17.60;99.90;;;;;;5071742;28;20068;-38
2022/06/26 05:21:33;;;;;;;6.07;4.22;;;17.80;99.90;;;;;;5071031;28;20494;-38
2022/06/26 05:23:59;;;;;;;4.97;3.58;;;17.90;99.90;;;;;;5071634;28;20037;-38
2022/06/26 05:26:25;;;;;;;6.28;4.53;;;18.10;99.90;;;;;;5071401;28;20055;-38
2022/06/26 05:28:51;;;;;;;5.57;3.83;;;18.20;99.90;;;;;;5071348;28;20138;-38
2022/06/26 05:31:17;;;;;;;5.82;3.45;;;18.40;99.90;;;;;;5071725;28;20048;-38
2022/06/26 05:33:43;;;;;;;4.63;4.22;;;18.50;99.90;;;;;;5071534;28;20041;-38
2022/06/26 05:36:09;;;;;;;5.30;3.65;;;18.60;99.90;;;;;;5071301;28;20049;-38
2022/06/26 05:38:36;;;;;;;4.00;3.60;;;18.70;99.90;;;;;;5071297;28;20044;-38
2022/06/26 05:41:02;;;;;;;5.13;3.65;;;18.70;99.90;;;;;;5071230;28;20040;-38
2022/06/26 05:43:27;;;;;;;7.07;4.40;;;18.70;99.90;;;;;;5071290;28;20123;-38
2022/06/26 05:45:53;;;;;;;4.63;4.07;;;18.70;99.90;;;;;;5070633;28;20128;-38
2022/06/26 05:48:19;;;;;;;5.13;4.20;;;18.70;99.90;;;;;;5070861;28;20044;-38
2022/06/26 05:50:45;;;;;;;4.65;3.97;;;18.70;99.90;;;;;;5069334;28;20048;-38
2022/06/26 05:53:10;;;;;;;7.53;4.38;;;18.70;99.90;;;;;;5070773;28;20040;-38
2022/06/26 05:55:38;;;;;;;5.63;4.32;;;19.10;99.90;;;;;;5070917;28;20049;-38
2022/06/26 05:58:05;;;;;;;7.10;4.50;;;18.90;99.90;;;;;;5070895;28;20131;-38
2022/06/26 06:00:30;;;;;;;5.85;3.95;;;19.00;99.90;;;;;;5070843;28;20395;-38
2022/06/26 06:02:56;;;;;;;6.82;4.45;;;19.20;99.90;;;;;;5070582;28;20040;-38
2022/06/26 06:05:22;;;;;;;4.22;3.83;;;19.60;99.90;;;;;;5068942;28;20072;-38
2022/06/26 06:07:48;;;;;;;5.43;3.83;;;20.30;99.90;;;;;;5070390;28;20256;-38
2022/06/26 06:10:14;;;;;;;7.72;4.45;;;20.90;99.90;;;;;;5070024;28;20371;-38
2022/06/26 06:12:40;;;;;;;6.80;4.15;;;21.40;99.90;;;;;;5070087;28;20040;-38
2022/06/26 06:15:06;;;;;;;4.60;3.85;;;21.70;99.90;;;;;;5070603;28;20048;-38
2022/06/26 06:17:35;;;;;;;3.75;3.45;;;21.90;99.90;;;;;;5070579;28;20055;-38
2022/06/26 06:20:06;;;;;;;4.20;3.80;;;22.30;99.90;;;;;;5069974;28;20067;-38
2022/06/26 06:22:32;;;;;;;7.72;3.85;;;23.00;99.90;;;;;;5070506;28;20082;-38
2022/06/26 06:24:58;;;;;;;4.93;3.85;;;24.00;99.90;;;;;;5069931;28;20052;-38
2022/06/26 06:27:24;;;;;;;3.65;3.15;;;24.50;99.90;;;;;;5069273;28;20036;-38
2022/06/26 06:29:50;;;;;;;5.82;3.55;;;24.60;99.90;;;;;;5069797;28;20119;-38
2022/06/26 06:32:15;;;;;;;5.22;3.63;;;24.50;99.90;;;;;;5070069;28;20036;-38
2022/06/26 06:34:41;;;;;;;3.75;3.08;;;24.70;99.90;;;;;;5070135;28;20494;-38
2022/06/26 06:37:08;;;;;;;4.03;3.40;;;25.20;99.90;;;;;;5070118;28;20184;-38
2022/06/26 06:39:33;;;;;;;5.35;4.47;;;25.20;99.90;;;;;;5070204;28;20062;-38
2022/06/26 06:41:59;;;;;;;5.18;4.10;;;25.10;99.90;;;;;;5069868;28;20044;-38
2022/06/26 06:44:25;;;;;;;5.32;4.78;;;24.80;99.90;;;;;;5070101;28;20036;-38
2022/06/26 06:46:50;;;;;;;6.05;5.45;;;24.50;99.50;;;;;;5069533;28;20510;-38
2022/06/26 06:49:16;;;;;;;6.72;6.10;;;24.50;99.40;;;;;;5070102;28;20055;-39
2022/06/26 06:51:42;;;;;;;8.27;6.38;;;24.40;99.70;;;;;;5069977;28;20056;-38
2022/06/26 06:54:07;;;;;;;7.38;6.68;;;24.20;99.10;;;;;;5069752;28;20123;-38
2022/06/26 06:56:33;;;;;;;7.82;6.47;;;24.10;98.60;;;;;;5069906;28;20491;-38
2022/06/26 06:59:00;;;;;;;7.57;6.72;;;24.10;98.70;;;;;;5069848;28;20047;-38
2022/06/26 07:01:26;;;;;;;7.63;6.90;;;24.10;98.90;;;;;;5069920;28;20123;-38
2022/06/26 07:03:51;;;;;;;7.90;6.55;;;24.00;98.60;;;;;;5069830;28;20033;-38
2022/06/26 07:06:17;;;;;;;7.85;7.05;;;24.20;98.30;;;;;;5069705;28;20490;-38
2022/06/26 07:08:43;;;;;;;7.32;6.22;;;24.50;97.60;;;;;;5069055;28;20489;-38
2022/06/26 07:11:08;;;;;;;6.80;5.20;;;24.50;97.00;;;;;;5069658;28;20047;-38
2022/06/26 07:13:34;;;;;;;6.85;5.88;;;24.40;96.70;;;;;;5069796;28;20478;-38
2022/06/26 07:16:01;;;;;;;7.85;7.05;;;24.20;96.20;;;;;;5069380;28;20048;-38
2022/06/26 07:18:28;;;;;;;8.23;7.40;;;24.00;95.80;;;;;;5069670;28;20532;-38
2022/06/26 07:20:54;;;;;;;7.90;6.90;;;23.90;95.60;;;;;;5069575;28;20040;-38
2022/06/26 07:23:20;;;;;;;10.40;7.32;;;24.80;95.40;;;;;;5069659;28;20139;-39
2022/06/26 07:25:46;;;;;;;9.05;8.15;;;26.00;94.80;;;;;;5069661;28;20044;-38
2022/06/26 07:28:12;;;;;;;8.77;7.88;;;26.40;93.20;;;;;;5069363;28;20045;-38
2022/06/26 07:30:38;;;;;;;8.77;7.97;;;26.70;91.70;;;;;;5069517;28;20037;-38
2022/06/26 07:35:52;;;;;;;8.18;6.95;;;29.80;87.30;;;;;;5069089;28;20054;-39
2022/06/26 07:38:18;;;;;;;7.40;6.40;;;31.70;80.60;;;;;;5069874;28;20048;-39
2022/06/26 07:40:44;;;;;;;7.65;6.95;;;32.10;78.00;;;;;;5073582;28;20107;-39
2022/06/26 07:43:10;;;;;;;8.95;6.80;;;32.50;74.00;;;;;;5073308;28;20455;-39
2022/06/26 07:45:35;;;;;;;6.80;6.10;;;31.80;72.80;;;;;;5073628;28;20056;-39
2022/06/26 07:48:01;;;;;;;7.55;6.57;;;32.30;71.30;;;;;;5073133;28;20044;-39
2022/06/26 07:50:28;;;;;;;8.45;7.57;;;32.80;69.00;;;;;;5073628;28;20032;-39
2022/06/26 07:52:54;;;;;;;8.27;5.57;;;32.10;66.40;;;;;;5072841;28;20044;-39
2022/06/26 07:55:20;;;;;;;6.78;6.18;;;33.00;66.20;;;;;;5072334;28;20047;-38
2022/06/26 07:57:46;;;;;;;5.85;5.25;;;33.60;65.20;;;;;;5071094;28;20127;-38
2022/06/26 08:00:12;;;;;;;6.35;5.13;;;34.70;65.70;;;;;;5070180;28;20394;-39
2022/06/26 08:02:39;;;;;;;5.63;5.10;;;34.50;62.90;;;;;;5070662;28;20036;-40
2022/06/26 08:05:05;;;;;;;8.00;6.68;;;33.30;77.70;;;;;;5070176;28;20067;-39
2022/06/26 08:07:31;;;;;;;6.35;5.68;;;31.80;62.30;;;;;;5069941;28;20054;-39
2022/06/26 08:09:56;;;;;;;7.55;4.82;;;30.60;64.00;;;;;;5070142;28;20052;-38
2022/06/26 08:12:22;;;;;;;4.38;3.90;;;30.30;65.00;;;;;;5070360;28;20057;-38
2022/06/26 08:14:48;;;;;;;5.40;4.88;;;30.30;65.50;;;;;;5070551;28;20032;-38
2022/06/26 08:17:13;;;;;;;7.00;5.60;;;29.40;66.50;;;;;;5069969;28;20475;-38
2022/06/26 08:19:39;;;;;;;5.25;4.78;;;28.50;71.10;;;;;;5070622;28;20090;-38
2022/06/26 08:22:05;;;;;;;6.63;5.40;;;28.10;74.30;;;;;;5070675;28;20051;-38
2022/06/26 08:24:33;;;;;;;6.97;5.50;;;28.20;71.70;;;;;;5070583;28;20089;-38
2022/06/26 08:27:00;;;;;;;7.20;5.70;;;28.80;72.30;;;;;;5070452;28;20046;-38
2022/06/26 08:29:26;;;;;;;5.18;4.40;;;29.60;70.10;;;;;;5070059;28;20448;-38
2022/06/26 08:31:51;;;;;;;5.35;3.55;;;29.90;80.50;;;;;;5070275;28;20348;-38
2022/06/26 08:34:18;;;;;;;4.53;3.88;;;29.30;69.20;;;;;;5070101;28;20044;-38
2022/06/26 08:36:43;;;;;;;4.47;3.83;;;29.00;72.70;;;;;;5069521;28;20135;-38
2022/06/26 08:39:10;;;;;;;5.82;3.80;;;29.20;68.70;;;;;;5069400;28;20438;-39
2022/06/26 08:41:44;;;;;;;4.55;2.88;;;30.40;79.30;;;;;;5068991;28;20052;-38
2022/06/26 08:44:10;;;;;;;4.68;4.15;;;31.70;65.70;;;;;;5068234;28;20752;-38
2022/06/26 08:46:40;;;;;;;4.07;2.72;;;33.20;63.70;;;;;;5069622;28;20052;-39
2022/06/26 08:49:15;;;;;;;5.43;4.03;;;34.70;62.20;;;;;;5069361;28;20060;-39
2022/06/26 08:51:43;;;;;;;4.53;3.13;;;35.90;58.20;;;;;;5069400;28;20043;-39
2022/06/26 08:54:09;;;;;;;5.38;2.85;;;35.60;56.30;;;;;;5069303;28;20083;-39
2022/06/26 08:56:44;;;;;;;3.05;2.35;;;35.60;56.00;;;;;;5067990;28;20053;-40
2022/06/26 08:59:15;;;;;;;2.70;1.92;;;36.20;55.30;;;;;;5067793;28;20672;-39
2022/06/26 09:01:42;;;;;;;3.25;1.92;;;36.30;53.40;;;;;;5069881;28;20498;-39
2022/06/26 09:04:08;;;;;;;2.83;1.80;;;36.90;53.00;;;;;;5069787;28;20511;-40
2022/06/26 09:06:42;;;;;;;1.67;1.20;;;36.80;52.20;;;;;;5069060;28;20055;-39
2022/06/26 09:09:16;;;;;;;4.45;1.60;;;37.10;52.40;;;;;;5069099;28;20044;-40
2022/06/26 09:11:42;;;;;;;1.92;1.13;;;35.80;51.60;;;;;;5069152;28;20768;-38
2022/06/26 09:14:09;;;;;;;1.85;0.65;;;35.70;51.50;;;;;;5069033;28;20056;-39
2022/06/26 09:16:38;;;;;;;2.05;0.40;;;35.00;52.70;;;;;;5068268;28;20052;-38
2022/06/26 09:19:12;;;;;;;3.42;0.80;;;33.80;52.40;;;;;;5069191;28;20133;-39
2022/06/26 09:21:38;;;;;;;2.15;0.70;;;32.50;52.50;;;;;;5069644;28;20109;-38
2022/06/26 09:24:08;;;;;;;4.00;0.90;;;31.60;55.40;;;;;;5069111;28;20044;-38
2022/06/26 09:26:33;;;;;;;2.67;1.23;;;32.00;56.90;;;;;;5069572;28;20047;-38
2022/06/26 09:29:18;;;;;;;2.22;0.80;;;32.40;55.50;;;;;;5069702;28;20044;-39
2022/06/26 09:31:44;;;;;;;3.55;1.23;;;32.60;55.40;;;;;;5069821;28;20119;-38
2022/06/26 09:34:24;;;;;;;3.20;1.10;;;33.90;55.40;;;;;;5069418;28;20546;-39
2022/06/26 09:37:02;;;;;;;3.08;1.25;;;35.80;55.00;;;;;;5068920;28;20374;-39
2022/06/26 09:39:30;;;;;;;3.58;1.00;;;37.50;52.60;;;;;;5069067;28;20040;-39
2022/06/26 09:41:56;;;;;;;2.88;1.00;;;38.60;50.20;;;;;;5069247;28;20044;-40
2022/06/26 09:44:23;;;;;;;4.78;0.98;;;37.80;48.80;;;;;;5067050;28;20130;-39
2022/06/26 09:46:49;;;;;;;2.00;0.80;;;37.00;49.50;;;;;;5068706;28;20048;-40
2022/06/26 09:49:17;;;;;;;2.83;1.05;;;37.00;50.50;;;;;;5068409;28;20090;-39
2022/06/26 09:51:46;;;;;;;3.35;0.60;;;36.20;49.30;;;;;;5068595;28;20374;-39
2022/06/26 09:54:13;;;;;;;3.70;0.40;;;36.40;50.80;;;;;;5068481;28;20032;-39
2022/06/26 09:56:40;;;;;;;2.30;0.70;;;36.80;50.50;;;;;;5068543;28;20053;-39
2022/06/26 09:59:07;;;;;;;3.83;1.20;;;36.40;50.00;;;;;;5067865;28;20059;-42
2022/06/26 10:07:06;;;;;;;1.58;0.30;;;36.70;49.60;;;;;;5067354;28;20587;-39
2022/06/26 10:09:34;;;;;;;3.78;0.55;;;36.20;49.50;;;;;;5067870;28;20040;-39
2022/06/26 10:12:02;;;;;;;2.20;0.52;;;35.80;49.10;;;;;;5067640;28;20548;-39
2022/06/26 10:14:33;;;;;;;2.03;0.68;;;35.30;49.90;;;;;;5067685;28;20045;-39
2022/06/26 10:17:23;;;;;;;2.10;0.40;;;34.50;51.60;;;;;;5067913;28;20056;-39
2022/06/26 10:20:08;;;;;;;2.30;0.55;;;34.60;53.10;;;;;;5067625;28;20105;-39
2022/06/26 10:22:41;;;;;;;1.55;0.30;;;35.00;51.60;;;;;;5067762;28;20043;-38
2022/06/26 10:25:09;;;;;;;1.33;0.30;;;35.30;50.70;;;;;;5067956;28;20367;-39
2022/06/26 10:27:37;;;;;;;3.08;0.35;;;35.20;51.20;;;;;;5067760;28;20139;-39
2022/06/26 10:30:15;;;;;;;1.27;0.40;;;35.10;50.80;;;;;;5067580;28;20075;-40
2022/06/26 10:32:42;;;;;;;1.23;0.30;;;35.20;50.30;;;;;;5067269;28;20044;-40
2022/06/26 10:35:08;;;;;;;2.45;0.22;;;34.60;50.00;;;;;;5067317;28;20123;-38
2022/06/26 10:37:47;;;;;;;1.92;0.30;;;34.20;50.60;;;;;;5066890;28;20059;-38
2022/06/26 10:43:11;;;;;;;2.35;0.60;;;32.80;50.00;;;;;;5066222;28;20059;-38
2022/06/26 10:45:39;;;;;;;2.65;0.63;;;32.00;51.90;;;;;;5067472;28;20048;-39
2022/06/26 10:48:15;;;;;;;4.38;1.00;;;31.50;53.10;;;;;;5067947;28;20040;-38
2022/06/26 10:50:42;;;;;;;1.15;0.30;;;31.20;53.90;;;;;;5067831;28;20033;-38
2022/06/26 10:53:22;;;;;;;1.38;0.30;;;30.90;54.70;;;;;;5067684;28;20041;-38
2022/06/26 10:55:51;;;;;;;1.93;0.60;;;30.50;53.70;;;;;;5067413;28;20486;-38
2022/06/26 10:58:18;;;;;;;2.85;0.55;;;30.20;55.10;;;;;;5067161;28;20041;-38
2022/06/26 11:00:44;;;;;;;4.47;0.47;;;29.90;54.80;;;;;;5067903;28;20114;-38
2022/06/26 11:03:18;;;;;;;1.70;0.40;;;29.80;56.50;;;;;;5067648;28;20040;-38
2022/06/26 11:06:01;;;;;;;2.45;0.47;;;29.60;57.70;;;;;;5065993;28;20106;-38
2022/06/26 11:08:39;;;;;;;1.85;0.40;;;29.30;58.60;;;;;;5067540;28;20044;-38
2022/06/26 11:11:20;;;;;;;2.83;0.63;;;29.00;57.20;;;;;;5066734;28;20078;-38
2022/06/26 11:13:51;;;;;;;5.47;1.38;;;28.80;58.60;;;;;;5067319;28;20490;-38
2022/06/26 11:16:17;;;;;;;;;;;28.40;59.50;;;;;;5066611;28;20513;-38
2022/06/26 11:18:43;;;;;;;3.75;0.68;;;28.10;59.90;;;;;;5067873;28;19974;-38
2022/06/26 11:21:09;;;;;;;1.98;0.45;;;27.80;59.80;;;;;;5067203;28;20069;-38
2022/06/26 11:23:36;;;;;;;3.15;0.50;;;27.80;60.70;;;;;;5067404;28;20048;-38
2022/06/26 11:26:11;;;;;;;2.97;0.70;;;27.80;62.10;;;;;;5066926;28;20080;-38
2022/06/26 11:28:44;;;;;;;1.90;0.57;;;27.90;61.30;;;;;;5065599;28;20049;-37
2022/06/26 11:31:19;;;;;;;1.60;0.35;;;28.10;60.80;;;;;;5067306;28;20044;-38
2022/06/26 11:33:45;;;;;;;2.38;0.40;;;28.10;61.30;;;;;;5067496;28;20115;-37
2022/06/26 11:36:13;;;;;;;1.33;0.40;;;28.20;60.90;;;;;;5065986;28;20183;-37
2022/06/26 11:38:46;;;;;;;2.50;0.40;;;28.30;60.50;;;;;;5066603;28;20048;-38
2022/06/26 11:41:11;;;;;;;1.65;0.55;;;28.40;61.60;;;;;;5067325;28;20110;-38
2022/06/26 11:43:48;;;;;;;1.98;0.35;;;28.40;62.00;;;;;;5067234;28;20489;-38
2022/06/26 11:46:13;;;;;;;2.42;0.45;;;28.30;61.00;;;;;;5067040;28;20043;-38
2022/06/26 11:48:39;;;;;;;1.67;0.60;;;28.30;61.10;;;;;;5065175;28;20041;-37
2022/06/26 11:51:05;;;;;;;2.00;0.40;;;28.20;60.40;;;;;;5067106;28;20083;-38
2022/06/26 11:53:33;;;;;;;2.17;0.30;;;28.20;61.80;;;;;;5066542;28;20402;-38
2022/06/26 11:56:03;;;;;;;4.90;0.63;;;28.20;63.10;;;;;;5066665;28;20044;-38
2022/06/26 11:58:32;;;;;;;4.10;1.60;;;28.20;61.80;;;;;;5066837;28;20048;-38
2022/06/26 12:01:12;;;;;;;3.80;0.45;;;28.20;60.60;;;;;;5066176;28;20048;-38
2022/06/26 12:03:47;;;;;;;2.05;0.88;;;28.00;59.50;;;;;;5064990;28;20040;-37
2022/06/26 12:06:35;;;;;;;1.30;0.30;;;27.80;58.30;;;;;;5066124;28;20056;-38
2022/06/26 12:09:14;;;;;;;1.60;0.40;;;27.70;58.20;;;;;;5066936;28;20041;-38
2022/06/26 12:11:42;;;;;;;3.42;0.60;;;27.60;59.00;;;;;;5067073;28;20411;-38
2022/06/26 12:14:16;;;;;;;2.53;0.68;;;27.50;58.30;;;;;;5066597;28;20502;-38
2022/06/26 12:16:46;;;;;;;2.50;0.45;;;27.60;60.00;;;;;;5066538;28;20044;-38
2022/06/26 12:19:12;;;;;;;1.55;0.30;;;27.70;60.90;;;;;;5066974;28;20127;-38
2022/06/26 12:21:38;;;;;;;2.08;0.45;;;27.90;61.00;;;;;;5066384;28;20060;-38
2022/06/26 12:24:13;;;;;;;2.03;0.80;;;28.10;59.60;;;;;;5066488;28;20131;-38
2022/06/26 12:26:40;;;;;;;4.18;0.80;;;28.10;61.30;;;;;;5068746;28;20505;-38
2022/06/26 12:29:14;;;;;;;2.92;0.95;;;28.10;61.40;;;;;;5070271;28;20535;-38
2022/06/26 12:31:40;;;;;;;3.25;0.40;;;28.10;61.60;;;;;;5068421;28;20478;-37
2022/06/26 12:34:07;;;;;;;2.35;0.47;;;28.00;60.70;;;;;;5069702;28;20796;-38
2022/06/26 12:36:33;;;;;;;1.92;0.60;;;28.00;61.30;;;;;;5069478;28;20036;-37
2022/06/26 12:38:59;;;;;;;1.92;0.50;;;28.00;60.00;;;;;;5069537;28;20446;-38
2022/06/26 12:41:25;;;;;;;2.63;0.63;;;28.00;60.70;;;;;;5069833;28;20074;-38
2022/06/26 12:43:53;;;;;;;2.15;0.55;;;28.10;60.90;;;;;;5069927;28;20424;-38
2022/06/26 12:46:19;;;;;;;4.50;0.47;;;28.20;60.30;;;;;;5069978;28;20059;-38
2022/06/26 12:48:46;;;;;;;2.22;0.50;;;28.00;59.30;;;;;;5069264;28;20044;-37
2022/06/26 12:51:13;;;;;;;2.40;0.60;;;27.90;60.50;;;;;;5069932;28;20545;-37
2022/06/26 12:53:39;;;;;;;2.28;0.85;;;27.70;60.90;;;;;;5070204;28;20024;-38
2022/06/26 12:56:05;;;;;;;3.65;0.68;;;27.50;60.40;;;;;;5069602;28;20075;-37